sensor_id;sensor_type;location;lat;lon;timestamp;temperature;humidity
4651;DHT22;2338;49.602;8.722;2023-12-22T00:00:06;6.80;99.90
4651;DHT22;2338;49.602;8.722;2023-12-22T00:02:53;6.80;99.90
4651;DHT22;2338;49.602;8.722;2023-12-22T00:05:39;6.80;99.90
4651;DHT22;2338;49.602;8.722;2023-12-22T00:08:25;6.70;99.90
4651;DHT22;2338;49.602;8.722;2023-12-22T00:11:10;6.60;99.90
4651;DHT22;2338;49.602;8.722;2023-12-22T00:13:56;6.60;99.90
4651;DHT22;2338;49.602;8.722;2023-12-22T00:16:41;6.70;99.90
4651;DHT22;2338;49.602;8.722;2023-12-22T00:19:28;6.60;99.90
4651;DHT22;2338;49.602;8.722;2023-12-22T00:22:14;6.60;99.90
4651;DHT22;2338;49.602;8.722;2023-12-22T00:24:59;6.60;99.90
4651;DHT22;2338;49.602;8.722;2023-12-22T00:27:45;6.70;99.90
4651;DHT22;2338;49.602;8.722;2023-12-22T00:30:30;6.70;99.90
4651;DHT22;2338;49.602;8.722;2023-12-22T00:33:16;6.70;99.90
4651;DHT22;2338;49.602;8.722;2023-12-22T00:36:03;6.70;99.90
4651;DHT22;2338;49.602;8.722;2023-12-22T00:38:49;6.70;99.90
4651;DHT22;2338;49.602;8.722;2023-12-22T00:41:34;6.80;99.90
4651;DHT22;2338;49.602;8.722;2023-12-22T00:44:20;6.70;99.90
4651;DHT22;2338;49.602;8.722;2023-12-22T00:47:06;6.70;99.90
4651;DHT22;2338;49.602;8.722;2023-12-22T00:49:52;6.60;99.90
4651;DHT22;2338;49.602;8.722;2023-12-22T00:52:38;6.50;99.90
4651;DHT22;2338;49.602;8.722;2023-12-22T00:55:24;6.50;99.90
4651;DHT22;2338;49.602;8.722;2023-12-22T00:58:10;6.50;99.90
4651;DHT22;2338;49.602;8.722;2023-12-22T01:00:55;6.50;99.90
4651;DHT22;2338;49.602;8.722;2023-12-22T01:03:41;6.50;99.90
4651;DHT22;2338;49.602;8.722;2023-12-22T01:06:27;6.60;99.90
4651;DHT22;2338;49.602;8.722;2023-12-22T01:09:14;6.60;99.90
4651;DHT22;2338;49.602;8.722;2023-12-22T01:12:00;6.50;99.90
4651;DHT22;2338;49.602;8.722;2023-12-22T01:14:48;6.50;99.90
4651;DHT22;2338;49.602;8.722;2023-12-22T01:17:35;6.50;99.90
4651;DHT22;2338;49.602;8.722;2023-12-22T01:20:21;6.50;99.90
4651;DHT22;2338;49.602;8.722;2023-12-22T01:23:07;6.50;99.90
4651;DHT22;2338;49.602;8.722;2023-12-22T01:25:54;6.50;99.90
4651;DHT22;2338;49.602;8.722;2023-12-22T01:28:39;6.40;99.90
4651;DHT22;2338;49.602;8.722;2023-12-22T01:31:25;6.50;99.90
4651;DHT22;2338;49.602;8.722;2023-12-22T01:34:11;6.50;99.90
4651;DHT22;2338;49.602;8.722;2023-12-22T01:36:57;6.50;99.90
4651;DHT22;2338;49.602;8.722;2023-12-22T01:39:43;6.70;99.90
4651;DHT22;2338;49.602;8.722;2023-12-22T01:42:30;6.70;99.90
4651;DHT22;2338;49.602;8.722;2023-12-22T01:45:16;6.80;99.90
4651;DHT22;2338;49.602;8.722;2023-12-22T01:48:02;6.80;99.90
4651;DHT22;2338;49.602;8.722;2023-12-22T01:50:49;6.70;99.90
4651;DHT22;2338;49.602;8.722;2023-12-22T01:53:35;6.70;99.90
4651;DHT22;2338;49.602;8.722;2023-12-22T01:56:21;6.70;99.90
4651;DHT22;2338;49.602;8.722;2023-12-22T01:59:08;6.60;99.90
4651;DHT22;2338;49.602;8.722;2023-12-22T02:01:55;6.60;99.90
4651;DHT22;2338;49.602;8.722;2023-12-22T02:04:41;6.50;99.90
4651;DHT22;2338;49.602;8.722;2023-12-22T02:07:27;6.50;99.90
4651;DHT22;2338;49.602;8.722;2023-12-22T02:10:12;6.50;99.90
4651;DHT22;2338;49.602;8.722;2023-12-22T02:12:58;6.50;99.90
4651;DHT22;2338;49.602;8.722;2023-12-22T02:15:46;6.50;99.90
4651;DHT22;2338;49.602;8.722;2023-12-22T02:18:34;6.50;99.90
4651;DHT22;2338;49.602;8.722;2023-12-22T02:21:20;6.60;99.90
4651;DHT22;2338;49.602;8.722;2023-12-22T02:24:07;6.60;99.90
4651;DHT22;2338;49.602;8.722;2023-12-22T02:26:56;6.70;99.90
4651;DHT22;2338;49.602;8.722;2023-12-22T02:29:49;6.80;99.90
4651;DHT22;2338;49.602;8.722;2023-12-22T02:32:37;6.90;99.90
4651;DHT22;2338;49.602;8.722;2023-12-22T02:35:26;6.80;99.90
4651;DHT22;2338;49.602;8.722;2023-12-22T02:38:12;6.80;99.90
4651;DHT22;2338;49.602;8.722;2023-12-22T02:40:59;6.70;99.90
4651;DHT22;2338;49.602;8.722;2023-12-22T02:43:45;6.70;99.90
4651;DHT22;2338;49.602;8.722;2023-12-22T02:46:32;6.60;99.90
4651;DHT22;2338;49.602;8.722;2023-12-22T02:49:17;6.60;99.90
4651;DHT22;2338;49.602;8.722;2023-12-22T02:52:04;6.70;99.90
4651;DHT22;2338;49.602;8.722;2023-12-22T02:54:50;6.70;99.90
4651;DHT22;2338;49.602;8.722;2023-12-22T02:57:37;6.70;99.90
4651;DHT22;2338;49.602;8.722;2023-12-22T03:00:22;6.70;99.90
4651;DHT22;2338;49.602;8.722;2023-12-22T03:03:08;6.70;99.90
4651;DHT22;2338;49.602;8.722;2023-12-22T03:05:53;6.70;99.90
4651;DHT22;2338;49.602;8.722;2023-12-22T03:08:39;6.70;99.90
4651;DHT22;2338;49.602;8.722;2023-12-22T03:11:24;6.70;99.90
4651;DHT22;2338;49.602;8.722;2023-12-22T03:14:12;6.70;99.90
4651;DHT22;2338;49.602;8.722;2023-12-22T03:16:57;6.70;99.90
4651;DHT22;2338;49.602;8.722;2023-12-22T03:19:42;6.70;99.90
4651;DHT22;2338;49.602;8.722;2023-12-22T03:22:28;6.70;99.90
4651;DHT22;2338;49.602;8.722;2023-12-22T03:25:14;6.70;99.90
4651;DHT22;2338;49.602;8.722;2023-12-22T03:27:59;6.70;99.90
4651;DHT22;2338;49.602;8.722;2023-12-22T03:30:47;6.70;99.90
4651;DHT22;2338;49.602;8.722;2023-12-22T03:33:32;6.60;99.90
4651;DHT22;2338;49.602;8.722;2023-12-22T03:36:18;6.60;99.90
4651;DHT22;2338;49.602;8.722;2023-12-22T03:39:03;6.60;99.90
4651;DHT22;2338;49.602;8.722;2023-12-22T03:41:49;6.70;99.90
4651;DHT22;2338;49.602;8.722;2023-12-22T03:44:35;6.70;99.90
4651;DHT22;2338;49.602;8.722;2023-12-22T03:47:22;6.70;99.90
4651;DHT22;2338;49.602;8.722;2023-12-22T03:50:07;6.70;99.90
4651;DHT22;2338;49.602;8.722;2023-12-22T03:52:54;6.70;99.90
4651;DHT22;2338;49.602;8.722;2023-12-22T03:55:40;6.70;99.90
4651;DHT22;2338;49.602;8.722;2023-12-22T03:58:25;6.70;99.90
4651;DHT22;2338;49.602;8.722;2023-12-22T04:01:14;6.70;99.90
4651;DHT22;2338;49.602;8.722;2023-12-22T04:04:01;6.60;99.90
4651;DHT22;2338;49.602;8.722;2023-12-22T04:06:47;6.60;99.90
4651;DHT22;2338;49.602;8.722;2023-12-22T04:09:33;6.70;99.90
4651;DHT22;2338;49.602;8.722;2023-12-22T04:12:18;6.70;99.90
4651;DHT22;2338;49.602;8.722;2023-12-22T04:15:05;6.70;99.90
4651;DHT22;2338;49.602;8.722;2023-12-22T04:17:51;6.80;99.90
4651;DHT22;2338;49.602;8.722;2023-12-22T04:20:38;6.80;99.90
4651;DHT22;2338;49.602;8.722;2023-12-22T04:23:24;7.00;99.90
4651;DHT22;2338;49.602;8.722;2023-12-22T04:26:09;6.90;99.90
4651;DHT22;2338;49.602;8.722;2023-12-22T04:28:55;6.80;99.90
4651;DHT22;2338;49.602;8.722;2023-12-22T04:31:41;6.70;99.90
4651;DHT22;2338;49.602;8.722;2023-12-22T04:34:26;6.70;99.90
4651;DHT22;2338;49.602;8.722;2023-12-22T04:37:13;6.70;99.90
4651;DHT22;2338;49.602;8.722;2023-12-22T04:39:59;6.70;99.90
4651;DHT22;2338;49.602;8.722;2023-12-22T04:42:44;6.60;99.90
4651;DHT22;2338;49.602;8.722;2023-12-22T04:45:30;6.60;99.90
4651;DHT22;2338;49.602;8.722;2023-12-22T04:48:15;6.60;99.90
4651;DHT22;2338;49.602;8.722;2023-12-22T04:51:01;6.60;99.90
4651;DHT22;2338;49.602;8.722;2023-12-22T04:53:48;6.60;99.90
4651;DHT22;2338;49.602;8.722;2023-12-22T04:56:33;6.70;99.90
4651;DHT22;2338;49.602;8.722;2023-12-22T04:59:19;6.70;99.90
4651;DHT22;2338;49.602;8.722;2023-12-22T05:02:05;6.80;99.90
4651;DHT22;2338;49.602;8.722;2023-12-22T05:04:50;6.80;99.90
4651;DHT22;2338;49.602;8.722;2023-12-22T05:07:36;6.80;99.90
4651;DHT22;2338;49.602;8.722;2023-12-22T05:10:23;6.80;99.90
4651;DHT22;2338;49.602;8.722;2023-12-22T05:13:09;6.70;99.90
4651;DHT22;2338;49.602;8.722;2023-12-22T05:15:54;6.70;99.90
4651;DHT22;2338;49.602;8.722;2023-12-22T05:18:40;6.80;99.90
4651;DHT22;2338;49.602;8.722;2023-12-22T05:21:26;6.70;99.90
4651;DHT22;2338;49.602;8.722;2023-12-22T05:24:12;6.70;99.90
4651;DHT22;2338;49.602;8.722;2023-12-22T05:26:59;6.80;99.90
4651;DHT22;2338;49.602;8.722;2023-12-22T05:29:44;6.80;99.90
4651;DHT22;2338;49.602;8.722;2023-12-22T05:32:30;6.80;99.90
4651;DHT22;2338;49.602;8.722;2023-12-22T05:35:16;6.90;99.90
4651;DHT22;2338;49.602;8.722;2023-12-22T05:38:02;6.90;99.90
4651;DHT22;2338;49.602;8.722;2023-12-22T05:40:47;6.80;99.90
4651;DHT22;2338;49.602;8.722;2023-12-22T05:43:35;6.80;99.90
4651;DHT22;2338;49.602;8.722;2023-12-22T05:46:20;6.80;99.90
4651;DHT22;2338;49.602;8.722;2023-12-22T05:49:06;6.80;99.90
4651;DHT22;2338;49.602;8.722;2023-12-22T05:51:52;6.70;99.90
4651;DHT22;2338;49.602;8.722;2023-12-22T05:54:38;6.70;99.90
4651;DHT22;2338;49.602;8.722;2023-12-22T05:57:25;6.70;99.90
4651;DHT22;2338;49.602;8.722;2023-12-22T06:00:13;6.60;99.90
4651;DHT22;2338;49.602;8.722;2023-12-22T06:03:01;6.70;99.90
4651;DHT22;2338;49.602;8.722;2023-12-22T06:05:46;6.60;99.90
4651;DHT22;2338;49.602;8.722;2023-12-22T06:08:32;6.60;99.90
4651;DHT22;2338;49.602;8.722;2023-12-22T06:11:18;6.60;99.90
4651;DHT22;2338;49.602;8.722;2023-12-22T06:14:04;6.60;99.90
4651;DHT22;2338;49.602;8.722;2023-12-22T06:16:51;6.70;99.90
4651;DHT22;2338;49.602;8.722;2023-12-22T06:19:38;6.70;99.90
4651;DHT22;2338;49.602;8.722;2023-12-22T06:22:23;6.70;99.90
4651;DHT22;2338;49.602;8.722;2023-12-22T06:25:09;6.70;99.90
4651;DHT22;2338;49.602;8.722;2023-12-22T06:27:55;6.80;99.90
4651;DHT22;2338;49.602;8.722;2023-12-22T06:30:40;6.80;99.90
4651;DHT22;2338;49.602;8.722;2023-12-22T06:33:28;6.90;99.90
4651;DHT22;2338;49.602;8.722;2023-12-22T06:36:20;6.90;99.90
4651;DHT22;2338;49.602;8.722;2023-12-22T06:39:06;6.90;99.90
4651;DHT22;2338;49.602;8.722;2023-12-22T06:41:51;7.00;99.90
4651;DHT22;2338;49.602;8.722;2023-12-22T06:44:37;7.00;99.90
4651;DHT22;2338;49.602;8.722;2023-12-22T06:47:23;7.00;99.90
4651;DHT22;2338;49.602;8.722;2023-12-22T06:50:11;7.10;99.90
4651;DHT22;2338;49.602;8.722;2023-12-22T06:52:56;7.10;99.90
4651;DHT22;2338;49.602;8.722;2023-12-22T06:55:42;7.10;99.90
4651;DHT22;2338;49.602;8.722;2023-12-22T06:58:28;7.20;99.90
4651;DHT22;2338;49.602;8.722;2023-12-22T07:01:18;7.20;99.90
4651;DHT22;2338;49.602;8.722;2023-12-22T07:04:05;7.20;99.90
4651;DHT22;2338;49.602;8.722;2023-12-22T07:06:52;7.30;99.90
4651;DHT22;2338;49.602;8.722;2023-12-22T07:09:37;7.30;99.90
4651;DHT22;2338;49.602;8.722;2023-12-22T07:12:23;7.30;99.90
4651;DHT22;2338;49.602;8.722;2023-12-22T07:15:09;7.30;99.90
4651;DHT22;2338;49.602;8.722;2023-12-22T07:17:55;7.30;99.90
4651;DHT22;2338;49.602;8.722;2023-12-22T07:20:40;7.40;99.90
4651;DHT22;2338;49.602;8.722;2023-12-22T07:23:27;7.40;99.90
4651;DHT22;2338;49.602;8.722;2023-12-22T07:26:12;7.40;99.90
4651;DHT22;2338;49.602;8.722;2023-12-22T07:28:58;7.40;99.90
4651;DHT22;2338;49.602;8.722;2023-12-22T07:31:44;7.50;99.90
4651;DHT22;2338;49.602;8.722;2023-12-22T07:34:29;7.50;99.90
4651;DHT22;2338;49.602;8.722;2023-12-22T07:37:15;7.60;99.90
4651;DHT22;2338;49.602;8.722;2023-12-22T07:40:02;7.60;99.90
4651;DHT22;2338;49.602;8.722;2023-12-22T07:42:48;7.60;99.90
4651;DHT22;2338;49.602;8.722;2023-12-22T07:45:34;7.60;99.90
4651;DHT22;2338;49.602;8.722;2023-12-22T07:48:20;7.70;99.90
4651;DHT22;2338;49.602;8.722;2023-12-22T07:51:05;7.70;99.90
4651;DHT22;2338;49.602;8.722;2023-12-22T07:53:51;7.70;99.90
4651;DHT22;2338;49.602;8.722;2023-12-22T07:56:38;7.80;99.90
4651;DHT22;2338;49.602;8.722;2023-12-22T07:59:24;7.80;99.90
4651;DHT22;2338;49.602;8.722;2023-12-22T08:02:10;7.80;99.90
4651;DHT22;2338;49.602;8.722;2023-12-22T08:04:56;7.90;99.90
4651;DHT22;2338;49.602;8.722;2023-12-22T08:07:42;7.90;99.90
4651;DHT22;2338;49.602;8.722;2023-12-22T08:10:28;7.90;99.90
4651;DHT22;2338;49.602;8.722;2023-12-22T08:13:15;8.00;99.90
4651;DHT22;2338;49.602;8.722;2023-12-22T08:16:02;8.00;99.90
4651;DHT22;2338;49.602;8.722;2023-12-22T08:18:47;8.00;99.90
4651;DHT22;2338;49.602;8.722;2023-12-22T08:21:33;8.10;99.90
4651;DHT22;2338;49.602;8.722;2023-12-22T08:24:19;8.00;99.90
4651;DHT22;2338;49.602;8.722;2023-12-22T08:27:05;8.00;99.90
4651;DHT22;2338;49.602;8.722;2023-12-22T08:29:53;8.10;99.90
4651;DHT22;2338;49.602;8.722;2023-12-22T08:32:38;8.10;99.90
4651;DHT22;2338;49.602;8.722;2023-12-22T08:35:24;8.10;99.90
4651;DHT22;2338;49.602;8.722;2023-12-22T08:38:09;8.10;99.90
4651;DHT22;2338;49.602;8.722;2023-12-22T08:40:57;8.10;99.90
4651;DHT22;2338;49.602;8.722;2023-12-22T08:43:43;8.20;99.90
4651;DHT22;2338;49.602;8.722;2023-12-22T08:46:30;8.20;99.90
4651;DHT22;2338;49.602;8.722;2023-12-22T08:49:16;8.20;99.90
4651;DHT22;2338;49.602;8.722;2023-12-22T08:52:02;8.10;99.90
4651;DHT22;2338;49.602;8.722;2023-12-22T08:54:48;8.20;99.90
4651;DHT22;2338;49.602;8.722;2023-12-22T08:57:33;8.10;99.90
4651;DHT22;2338;49.602;8.722;2023-12-22T09:00:19;8.10;99.90
4651;DHT22;2338;49.602;8.722;2023-12-22T09:03:06;8.00;99.90
4651;DHT22;2338;49.602;8.722;2023-12-22T09:05:52;8.00;99.90
4651;DHT22;2338;49.602;8.722;2023-12-22T09:08:37;8.00;99.90
4651;DHT22;2338;49.602;8.722;2023-12-22T09:11:23;8.00;99.90
4651;DHT22;2338;49.602;8.722;2023-12-22T09:14:09;8.00;99.90
4651;DHT22;2338;49.602;8.722;2023-12-22T09:16:54;8.00;99.90
4651;DHT22;2338;49.602;8.722;2023-12-22T09:19:42;8.00;99.90
4651;DHT22;2338;49.602;8.722;2023-12-22T09:22:27;8.00;99.90
4651;DHT22;2338;49.602;8.722;2023-12-22T09:25:13;8.10;99.90
4651;DHT22;2338;49.602;8.722;2023-12-22T09:27:58;8.20;99.90
4651;DHT22;2338;49.602;8.722;2023-12-22T09:30:44;8.20;99.90
4651;DHT22;2338;49.602;8.722;2023-12-22T09:33:30;8.10;99.90
4651;DHT22;2338;49.602;8.722;2023-12-22T09:36:17;8.20;99.90
4651;DHT22;2338;49.602;8.722;2023-12-22T09:39:02;8.10;99.90
4651;DHT22;2338;49.602;8.722;2023-12-22T09:41:49;8.20;99.90
4651;DHT22;2338;49.602;8.722;2023-12-22T09:44:36;8.20;99.90
4651;DHT22;2338;49.602;8.722;2023-12-22T09:47:22;8.30;99.90
4651;DHT22;2338;49.602;8.722;2023-12-22T09:50:09;8.20;99.90
4651;DHT22;2338;49.602;8.722;2023-12-22T09:52:56;8.20;99.90
4651;DHT22;2338;49.602;8.722;2023-12-22T09:55:45;8.20;99.90
4651;DHT22;2338;49.602;8.722;2023-12-22T09:58:31;8.30;99.90
4651;DHT22;2338;49.602;8.722;2023-12-22T10:01:20;8.30;99.90
4651;DHT22;2338;49.602;8.722;2023-12-22T10:04:07;8.30;99.90
4651;DHT22;2338;49.602;8.722;2023-12-22T10:06:58;8.30;99.90
4651;DHT22;2338;49.602;8.722;2023-12-22T10:09:46;8.30;99.90
4651;DHT22;2338;49.602;8.722;2023-12-22T10:12:34;8.30;99.90
4651;DHT22;2338;49.602;8.722;2023-12-22T10:15:19;8.40;99.90
4651;DHT22;2338;49.602;8.722;2023-12-22T10:18:08;8.40;99.90
4651;DHT22;2338;49.602;8.722;2023-12-22T10:20:54;8.40;99.90
4651;DHT22;2338;49.602;8.722;2023-12-22T10:23:40;8.50;99.90
4651;DHT22;2338;49.602;8.722;2023-12-22T10:26:28;8.50;99.90
4651;DHT22;2338;49.602;8.722;2023-12-22T10:29:13;8.50;99.90
4651;DHT22;2338;49.602;8.722;2023-12-22T10:32:00;8.60;99.90
4651;DHT22;2338;49.602;8.722;2023-12-22T10:34:46;8.60;99.90
4651;DHT22;2338;49.602;8.722;2023-12-22T10:37:32;8.70;99.90
4651;DHT22;2338;49.602;8.722;2023-12-22T10:40:19;8.70;99.90
4651;DHT22;2338;49.602;8.722;2023-12-22T10:43:06;8.70;99.90
4651;DHT22;2338;49.602;8.722;2023-12-22T10:45:52;8.70;99.90
4651;DHT22;2338;49.602;8.722;2023-12-22T10:48:37;8.80;99.90
4651;DHT22;2338;49.602;8.722;2023-12-22T10:51:23;8.80;99.90
4651;DHT22;2338;49.602;8.722;2023-12-22T10:54:09;8.90;99.90
4651;DHT22;2338;49.602;8.722;2023-12-22T10:56:57;8.90;99.90
4651;DHT22;2338;49.602;8.722;2023-12-22T10:59:46;8.90;99.90
4651;DHT22;2338;49.602;8.722;2023-12-22T11:02:33;8.90;99.90
4651;DHT22;2338;49.602;8.722;2023-12-22T11:05:21;9.00;99.90
4651;DHT22;2338;49.602;8.722;2023-12-22T11:08:11;8.90;99.90
4651;DHT22;2338;49.602;8.722;2023-12-22T11:10:58;8.90;99.90
4651;DHT22;2338;49.602;8.722;2023-12-22T11:13:50;9.00;99.90
4651;DHT22;2338;49.602;8.722;2023-12-22T11:16:38;8.90;99.90
4651;DHT22;2338;49.602;8.722;2023-12-22T11:19:31;9.00;99.90
4651;DHT22;2338;49.602;8.722;2023-12-22T11:22:21;9.00;99.90
4651;DHT22;2338;49.602;8.722;2023-12-22T11:25:08;9.00;99.90
4651;DHT22;2338;49.602;8.722;2023-12-22T11:27:55;9.00;99.90
4651;DHT22;2338;49.602;8.722;2023-12-22T11:30:43;9.00;99.90
4651;DHT22;2338;49.602;8.722;2023-12-22T11:33:31;9.10;99.90
4651;DHT22;2338;49.602;8.722;2023-12-22T11:36:18;9.10;99.90
4651;DHT22;2338;49.602;8.722;2023-12-22T11:39:03;9.10;99.90
4651;DHT22;2338;49.602;8.722;2023-12-22T11:41:49;9.20;99.90
4651;DHT22;2338;49.602;8.722;2023-12-22T11:44:36;9.10;99.90
4651;DHT22;2338;49.602;8.722;2023-12-22T11:47:23;9.20;99.90
4651;DHT22;2338;49.602;8.722;2023-12-22T11:50:10;9.10;99.90
4651;DHT22;2338;49.602;8.722;2023-12-22T11:52:56;9.10;99.90
4651;DHT22;2338;49.602;8.722;2023-12-22T11:56:03;9.10;99.90
4651;DHT22;2338;49.602;8.722;2023-12-22T11:58:52;9.10;99.90
4651;DHT22;2338;49.602;8.722;2023-12-22T12:01:38;9.10;99.90
4651;DHT22;2338;49.602;8.722;2023-12-22T12:04:24;9.00;99.90
4651;DHT22;2338;49.602;8.722;2023-12-22T12:07:39;9.00;99.90
4651;DHT22;2338;49.602;8.722;2023-12-22T12:10:51;9.00;99.90
4651;DHT22;2338;49.602;8.722;2023-12-22T12:13:42;8.90;99.90
4651;DHT22;2338;49.602;8.722;2023-12-22T12:16:29;9.00;99.90
4651;DHT22;2338;49.602;8.722;2023-12-22T12:19:15;9.00;99.90
4651;DHT22;2338;49.602;8.722;2023-12-22T12:22:01;9.00;99.90
4651;DHT22;2338;49.602;8.722;2023-12-22T12:24:48;9.00;99.90
4651;DHT22;2338;49.602;8.722;2023-12-22T12:27:34;9.00;99.90
4651;DHT22;2338;49.602;8.722;2023-12-22T12:30:20;9.00;99.90
4651;DHT22;2338;49.602;8.722;2023-12-22T12:33:07;9.00;99.90
4651;DHT22;2338;49.602;8.722;2023-12-22T12:35:54;9.10;99.90
4651;DHT22;2338;49.602;8.722;2023-12-22T12:38:45;9.10;99.90
4651;DHT22;2338;49.602;8.722;2023-12-22T12:41:41;9.10;99.90
4651;DHT22;2338;49.602;8.722;2023-12-22T12:44:29;9.20;99.90
4651;DHT22;2338;49.602;8.722;2023-12-22T12:47:16;9.20;99.90
4651;DHT22;2338;49.602;8.722;2023-12-22T12:50:01;9.20;99.90
4651;DHT22;2338;49.602;8.722;2023-12-22T12:52:48;9.20;99.90
4651;DHT22;2338;49.602;8.722;2023-12-22T12:55:34;9.30;99.90
4651;DHT22;2338;49.602;8.722;2023-12-22T12:58:23;9.40;99.90
4651;DHT22;2338;49.602;8.722;2023-12-22T13:01:12;9.40;99.90
4651;DHT22;2338;49.602;8.722;2023-12-22T13:03:59;9.40;99.90
4651;DHT22;2338;49.602;8.722;2023-12-22T13:06:45;9.50;99.90
4651;DHT22;2338;49.602;8.722;2023-12-22T13:09:32;9.40;99.90
4651;DHT22;2338;49.602;8.722;2023-12-22T13:12:18;9.50;99.90
4651;DHT22;2338;49.602;8.722;2023-12-22T13:15:06;9.50;99.90
4651;DHT22;2338;49.602;8.722;2023-12-22T13:17:53;9.50;99.90
4651;DHT22;2338;49.602;8.722;2023-12-22T13:20:39;9.50;99.90
4651;DHT22;2338;49.602;8.722;2023-12-22T13:23:25;9.60;99.90
4651;DHT22;2338;49.602;8.722;2023-12-22T13:26:18;9.60;99.90
4651;DHT22;2338;49.602;8.722;2023-12-22T13:29:04;9.60;99.90
4651;DHT22;2338;49.602;8.722;2023-12-22T13:31:51;9.60;99.90
4651;DHT22;2338;49.602;8.722;2023-12-22T13:34:36;9.60;99.90
4651;DHT22;2338;49.602;8.722;2023-12-22T13:37:22;9.60;99.90
4651;DHT22;2338;49.602;8.722;2023-12-22T13:40:11;9.60;99.90
4651;DHT22;2338;49.602;8.722;2023-12-22T13:42:57;9.60;99.90
4651;DHT22;2338;49.602;8.722;2023-12-22T13:45:49;9.60;99.90
4651;DHT22;2338;49.602;8.722;2023-12-22T13:48:36;9.60;99.90
4651;DHT22;2338;49.602;8.722;2023-12-22T13:51:21;9.70;99.90
4651;DHT22;2338;49.602;8.722;2023-12-22T13:54:07;9.70;99.90
4651;DHT22;2338;49.602;8.722;2023-12-22T13:56:53;9.70;99.90
4651;DHT22;2338;49.602;8.722;2023-12-22T13:59:39;9.70;99.90
4651;DHT22;2338;49.602;8.722;2023-12-22T14:02:25;9.70;99.90
4651;DHT22;2338;49.602;8.722;2023-12-22T14:05:12;9.70;99.90
4651;DHT22;2338;49.602;8.722;2023-12-22T14:07:57;9.70;99.90
4651;DHT22;2338;49.602;8.722;2023-12-22T14:10:46;9.70;99.90
4651;DHT22;2338;49.602;8.722;2023-12-22T14:13:32;9.70;99.90
4651;DHT22;2338;49.602;8.722;2023-12-22T14:16:19;9.80;99.90
4651;DHT22;2338;49.602;8.722;2023-12-22T14:19:05;9.80;99.90
4651;DHT22;2338;49.602;8.722;2023-12-22T14:21:52;9.80;99.90
4651;DHT22;2338;49.602;8.722;2023-12-22T14:24:38;9.80;99.90
4651;DHT22;2338;49.602;8.722;2023-12-22T14:27:24;9.80;99.90
4651;DHT22;2338;49.602;8.722;2023-12-22T14:30:10;9.80;99.90
4651;DHT22;2338;49.602;8.722;2023-12-22T14:32:56;9.80;99.90
4651;DHT22;2338;49.602;8.722;2023-12-22T14:35:42;9.90;99.90
4651;DHT22;2338;49.602;8.722;2023-12-22T14:38:30;9.90;99.90
4651;DHT22;2338;49.602;8.722;2023-12-22T14:41:16;9.90;99.90
4651;DHT22;2338;49.602;8.722;2023-12-22T14:44:01;9.90;99.90
4651;DHT22;2338;49.602;8.722;2023-12-22T14:46:47;9.90;99.90
4651;DHT22;2338;49.602;8.722;2023-12-22T14:49:33;9.90;99.90
4651;DHT22;2338;49.602;8.722;2023-12-22T14:52:19;10.00;99.90
4651;DHT22;2338;49.602;8.722;2023-12-22T14:55:07;10.00;99.90
4651;DHT22;2338;49.602;8.722;2023-12-22T14:57:53;10.00;99.90
4651;DHT22;2338;49.602;8.722;2023-12-22T15:00:38;10.00;99.90
4651;DHT22;2338;49.602;8.722;2023-12-22T15:03:24;10.10;99.90
4651;DHT22;2338;49.602;8.722;2023-12-22T15:06:10;10.10;99.90
4651;DHT22;2338;49.602;8.722;2023-12-22T15:08:55;10.10;99.90
4651;DHT22;2338;49.602;8.722;2023-12-22T15:11:45;10.10;99.90
4651;DHT22;2338;49.602;8.722;2023-12-22T15:14:31;10.10;99.90
4651;DHT22;2338;49.602;8.722;2023-12-22T15:17:17;10.10;99.90
4651;DHT22;2338;49.602;8.722;2023-12-22T15:20:02;10.20;99.90
4651;DHT22;2338;49.602;8.722;2023-12-22T15:22:49;10.20;99.90
4651;DHT22;2338;49.602;8.722;2023-12-22T15:25:35;10.20;99.90
4651;DHT22;2338;49.602;8.722;2023-12-22T15:28:22;10.20;99.90
4651;DHT22;2338;49.602;8.722;2023-12-22T15:31:08;10.20;99.90
4651;DHT22;2338;49.602;8.722;2023-12-22T15:33:54;10.20;99.90
4651;DHT22;2338;49.602;8.722;2023-12-22T15:36:39;10.20;99.90
4651;DHT22;2338;49.602;8.722;2023-12-22T15:39:25;10.20;99.90
4651;DHT22;2338;49.602;8.722;2023-12-22T15:42:10;10.20;99.90
4651;DHT22;2338;49.602;8.722;2023-12-22T15:44:58;10.20;99.90
4651;DHT22;2338;49.602;8.722;2023-12-22T15:47:44;10.20;99.90
4651;DHT22;2338;49.602;8.722;2023-12-22T15:50:29;10.20;99.90
4651;DHT22;2338;49.602;8.722;2023-12-22T15:53:15;10.20;99.90
4651;DHT22;2338;49.602;8.722;2023-12-22T15:56:04;10.20;99.90
4651;DHT22;2338;49.602;8.722;2023-12-22T15:58:51;10.20;99.90
4651;DHT22;2338;49.602;8.722;2023-12-22T16:01:43;10.20;99.90
4651;DHT22;2338;49.602;8.722;2023-12-22T16:04:29;10.10;99.90
4651;DHT22;2338;49.602;8.722;2023-12-22T16:07:16;10.10;99.90
4651;DHT22;2338;49.602;8.722;2023-12-22T16:10:02;10.20;99.90
4651;DHT22;2338;49.602;8.722;2023-12-22T16:12:47;10.10;99.90
4651;DHT22;2338;49.602;8.722;2023-12-22T16:15:33;10.20;99.90
4651;DHT22;2338;49.602;8.722;2023-12-22T16:18:25;10.20;99.90
4651;DHT22;2338;49.602;8.722;2023-12-22T16:21:12;10.20;99.90
4651;DHT22;2338;49.602;8.722;2023-12-22T16:24:02;10.20;99.90
4651;DHT22;2338;49.602;8.722;2023-12-22T16:26:51;10.20;99.90
4651;DHT22;2338;49.602;8.722;2023-12-22T16:29:45;10.20;99.90
4651;DHT22;2338;49.602;8.722;2023-12-22T16:32:34;10.20;99.90
4651;DHT22;2338;49.602;8.722;2023-12-22T16:35:21;10.20;99.90
4651;DHT22;2338;49.602;8.722;2023-12-22T16:38:07;10.10;99.90
4651;DHT22;2338;49.602;8.722;2023-12-22T16:40:53;10.10;99.90
4651;DHT22;2338;49.602;8.722;2023-12-22T16:43:40;10.20;99.90
4651;DHT22;2338;49.602;8.722;2023-12-22T16:46:26;10.20;99.90
4651;DHT22;2338;49.602;8.722;2023-12-22T16:49:12;10.20;99.90
4651;DHT22;2338;49.602;8.722;2023-12-22T16:52:00;10.20;99.90
4651;DHT22;2338;49.602;8.722;2023-12-22T16:54:46;10.20;99.90
4651;DHT22;2338;49.602;8.722;2023-12-22T16:57:31;10.20;99.90
4651;DHT22;2338;49.602;8.722;2023-12-22T17:00:22;10.20;99.90
4651;DHT22;2338;49.602;8.722;2023-12-22T17:03:10;10.20;99.90
4651;DHT22;2338;49.602;8.722;2023-12-22T17:05:56;10.20;99.90
4651;DHT22;2338;49.602;8.722;2023-12-22T17:08:43;10.20;99.90
4651;DHT22;2338;49.602;8.722;2023-12-22T17:11:29;10.20;99.90
4651;DHT22;2338;49.602;8.722;2023-12-22T17:14:15;10.30;99.90
4651;DHT22;2338;49.602;8.722;2023-12-22T17:17:03;10.30;99.90
4651;DHT22;2338;49.602;8.722;2023-12-22T17:19:49;10.30;99.90
4651;DHT22;2338;49.602;8.722;2023-12-22T17:22:35;10.30;99.90
4651;DHT22;2338;49.602;8.722;2023-12-22T17:25:44;10.40;99.90
4651;DHT22;2338;49.602;8.722;2023-12-22T17:28:29;10.40;99.90
4651;DHT22;2338;49.602;8.722;2023-12-22T17:31:38;10.40;99.90
4651;DHT22;2338;49.602;8.722;2023-12-22T17:34:31;10.40;99.90
4651;DHT22;2338;49.602;8.722;2023-12-22T17:37:17;10.40;99.90
4651;DHT22;2338;49.602;8.722;2023-12-22T17:40:07;10.50;99.90
4651;DHT22;2338;49.602;8.722;2023-12-22T17:42:59;10.50;99.90
4651;DHT22;2338;49.602;8.722;2023-12-22T17:45:48;10.50;99.90
4651;DHT22;2338;49.602;8.722;2023-12-22T17:48:33;10.50;99.90
4651;DHT22;2338;49.602;8.722;2023-12-22T17:51:21;10.50;99.90
4651;DHT22;2338;49.602;8.722;2023-12-22T17:54:07;10.50;99.90
4651;DHT22;2338;49.602;8.722;2023-12-22T17:56:53;10.60;99.90
4651;DHT22;2338;49.602;8.722;2023-12-22T17:59:41;10.60;99.90
4651;DHT22;2338;49.602;8.722;2023-12-22T18:02:36;10.60;99.90
4651;DHT22;2338;49.602;8.722;2023-12-22T18:05:29;10.60;99.90
4651;DHT22;2338;49.602;8.722;2023-12-22T18:08:22;10.60;99.90
4651;DHT22;2338;49.602;8.722;2023-12-22T18:11:08;10.60;99.90
4651;DHT22;2338;49.602;8.722;2023-12-22T18:13:53;10.60;99.90
4651;DHT22;2338;49.602;8.722;2023-12-22T18:16:41;10.50;99.90
4651;DHT22;2338;49.602;8.722;2023-12-22T18:19:27;10.40;99.90
4651;DHT22;2338;49.602;8.722;2023-12-22T18:22:13;10.40;99.90